createdAt,value
2022-08-22T00:01:03.880Z,17.80
2022-08-22T00:02:58.275Z,19.30
2022-08-22T00:03:45.738Z,17.90
2022-08-22T00:06:43.711Z,17.80
2022-08-22T00:09:33.219Z,17.80
2022-08-22T00:12:35.061Z,17.80
2022-08-22T00:15:31.695Z,17.80
2022-08-22T00:18:09.189Z,17.80
2022-08-22T00:21:01.170Z,17.70
2022-08-22T00:23:34.999Z,17.70
2022-08-22T00:26:14.209Z,17.60
2022-08-22T00:29:00.563Z,17.60
2022-08-22T00:31:37.096Z,17.60
2022-08-22T00:34:04.474Z,17.60
2022-08-22T00:37:03.000Z,17.60
2022-08-22T00:39:45.195Z,17.50
2022-08-22T00:42:35.421Z,17.60
2022-08-22T00:45:41.801Z,17.50
2022-08-22T00:48:50.673Z,17.50
2022-08-22T00:51:36.734Z,17.50
2022-08-22T00:54:25.060Z,17.50
2022-08-22T00:57:19.630Z,17.40
2022-08-22T01:00:15.297Z,17.40
2022-08-22T01:03:21.307Z,17.40
2022-08-22T01:06:06.049Z,17.40
2022-08-22T01:08:56.563Z,17.80
2022-08-22T01:11:35.702Z,17.40
2022-08-22T01:14:18.753Z,17.40
2022-08-22T01:17:20.179Z,17.40
2022-08-22T01:19:56.388Z,17.40
2022-08-22T01:23:01.391Z,17.40
2022-08-22T01:26:02.932Z,17.40
2022-08-22T01:29:04.569Z,17.40
2022-08-22T01:31:54.665Z,17.30
2022-08-22T01:34:45.930Z,17.30
2022-08-22T01:37:32.076Z,17.30
2022-08-22T01:40:37.291Z,17.30
2022-08-22T01:43:59.200Z,17.20
2022-08-22T01:46:48.337Z,17.20
2022-08-22T01:49:39.919Z,17.10
2022-08-22T01:52:31.238Z,17.20
2022-08-22T01:55:23.172Z,17.30
2022-08-22T01:57:58.988Z,17.20
2022-08-22T02:00:35.555Z,17.20
2022-08-22T02:03:46.332Z,17.20
2022-08-22T02:06:18.062Z,17.10
2022-08-22T02:09:30.789Z,17.10
2022-08-22T02:12:38.728Z,17.10
2022-08-22T02:15:24.403Z,17.10
2022-08-22T02:17:54.675Z,17.10
2022-08-22T02:20:39.495Z,17.10
2022-08-22T02:23:35.370Z,17.10
2022-08-22T02:26:11.799Z,17.10
2022-08-22T02:28:56.601Z,17.10
2022-08-22T02:31:54.688Z,17.00
2022-08-22T02:34:40.110Z,17.00
2022-08-22T02:37:22.519Z,16.90
2022-08-22T02:40:37.820Z,16.90
2022-08-22T02:43:20.197Z,16.90
2022-08-22T02:46:05.778Z,16.90
2022-08-22T02:49:17.046Z,16.90
2022-08-22T02:52:09.814Z,16.90
2022-08-22T02:55:02.750Z,16.90
2022-08-22T02:57:53.731Z,16.80
2022-08-22T03:00:32.560Z,16.80
2022-08-22T03:03:23.762Z,16.80
2022-08-22T03:06:02.374Z,16.80
2022-08-22T03:08:34.163Z,16.80
2022-08-22T03:11:21.652Z,16.80
2022-08-22T03:14:18.644Z,16.80
2022-08-22T03:17:13.594Z,16.80
2022-08-22T03:19:55.873Z,16.80
2022-08-22T03:22:47.862Z,16.80
2022-08-22T03:25:18.221Z,16.60
2022-08-22T03:27:57.850Z,16.70
2022-08-22T03:30:37.816Z,16.70
2022-08-22T03:33:24.885Z,16.70
2022-08-22T03:36:00.266Z,16.70
2022-08-22T03:38:40.472Z,17.00
2022-08-22T03:41:38.329Z,16.60
2022-08-22T03:44:34.616Z,16.70
2022-08-22T03:47:04.405Z,16.60
2022-08-22T03:50:09.206Z,16.70
2022-08-22T03:53:04.345Z,16.70
2022-08-22T03:55:44.972Z,16.60
2022-08-22T03:58:34.823Z,16.70
2022-08-22T04:01:44.513Z,16.60
2022-08-22T04:04:31.790Z,16.60
2022-08-22T04:07:31.626Z,16.60
2022-08-22T04:10:40.101Z,16.50
2022-08-22T04:13:16.702Z,15.00
2022-08-22T04:15:54.014Z,16.50
2022-08-22T04:18:29.544Z,16.50
2022-08-22T04:21:06.646Z,17.60
2022-08-22T04:23:53.778Z,16.90
2022-08-22T04:26:41.589Z,16.40
2022-08-22T04:29:25.114Z,16.30
2022-08-22T04:32:21.772Z,16.30
2022-08-22T04:35:27.577Z,16.20
2022-08-22T04:38:09.232Z,16.20
2022-08-22T04:40:39.849Z,16.60
2022-08-22T04:43:31.721Z,15.40
2022-08-22T04:46:20.041Z,16.10
2022-08-22T04:49:06.147Z,16.10
2022-08-22T04:51:45.606Z,16.00
2022-08-22T04:54:46.871Z,16.00
2022-08-22T04:57:33.155Z,15.90
2022-08-22T05:00:06.217Z,15.90
2022-08-22T05:02:38.785Z,15.90
2022-08-22T05:05:33.594Z,15.90
2022-08-22T05:08:05.760Z,16.00
2022-08-22T05:10:46.434Z,15.90
2022-08-22T05:13:32.716Z,15.90
2022-08-22T05:16:05.081Z,15.90
2022-08-22T05:18:45.594Z,15.90
2022-08-22T05:21:14.547Z,15.90
2022-08-22T05:23:53.457Z,15.90
2022-08-22T05:26:23.782Z,15.90
2022-08-22T05:29:09.045Z,15.90
2022-08-22T05:31:48.063Z,15.90
2022-08-22T05:34:21.698Z,15.90
2022-08-22T05:36:57.123Z,14.80
2022-08-22T05:39:27.970Z,16.00
2022-08-22T05:42:03.144Z,15.90
2022-08-22T05:44:34.771Z,16.00
2022-08-22T05:47:22.904Z,16.00
2022-08-22T05:50:10.985Z,15.50
2022-08-22T05:52:46.180Z,16.00
2022-08-22T05:55:22.606Z,16.00
2022-08-22T05:58:15.046Z,16.00
2022-08-22T06:00:45.910Z,16.00
2022-08-22T06:03:22.159Z,16.00
2022-08-22T06:05:55.018Z,16.00
2022-08-22T06:08:30.185Z,16.00
2022-08-22T06:11:07.541Z,16.00
2022-08-22T06:13:47.363Z,16.00
2022-08-22T06:16:47.651Z,16.10
2022-08-22T06:19:21.336Z,16.10
2022-08-22T06:21:54.472Z,16.10
2022-08-22T06:24:28.028Z,16.20
2022-08-22T06:27:03.099Z,16.30
2022-08-22T06:29:38.439Z,16.30
2022-08-22T06:32:38.251Z,16.30
2022-08-22T06:35:26.415Z,16.40
2022-08-22T06:37:59.251Z,16.40
2022-08-22T06:40:30.822Z,16.50
2022-08-22T06:42:59.489Z,16.50
2022-08-22T06:45:31.633Z,16.60
2022-08-22T06:48:06.029Z,16.60
2022-08-22T06:50:39.951Z,16.70
2022-08-22T06:53:17.515Z,17.10
2022-08-22T06:55:56.598Z,16.80
2022-08-22T06:58:36.813Z,16.70
2022-08-22T07:01:18.313Z,16.80
2022-08-22T07:03:49.923Z,16.90
2022-08-22T07:06:22.824Z,16.90
2022-08-22T07:08:55.288Z,17.00
2022-08-22T07:11:32.627Z,17.00
2022-08-22T07:14:16.418Z,17.10
2022-08-22T07:16:52.464Z,17.10
2022-08-22T07:19:38.447Z,17.20
2022-08-22T07:22:25.873Z,17.20
2022-08-22T07:24:59.704Z,17.30
2022-08-22T07:27:32.811Z,17.30
2022-08-22T07:30:10.751Z,17.30
2022-08-22T07:33:25.907Z,17.40
2022-08-22T07:36:02.746Z,17.40
2022-08-22T07:38:43.988Z,17.50
2022-08-22T07:41:24.921Z,17.60
2022-08-22T07:44:01.415Z,17.60
2022-08-22T07:46:35.203Z,17.60
2022-08-22T07:49:37.512Z,17.70
2022-08-22T07:52:09.195Z,17.70
2022-08-22T07:54:57.912Z,17.80
2022-08-22T07:57:33.400Z,17.80
2022-08-22T08:00:04.502Z,17.80
2022-08-22T08:02:32.361Z,17.80
2022-08-22T08:05:00.858Z,17.90
2022-08-22T08:07:30.123Z,17.90
2022-08-22T08:10:04.136Z,18.00
2022-08-22T08:12:42.115Z,18.00
2022-08-22T08:15:23.988Z,18.00
2022-08-22T08:18:00.882Z,18.10
2022-08-22T08:20:30.493Z,18.10
2022-08-22T08:22:59.346Z,18.20
2022-08-22T08:25:29.697Z,18.40
2022-08-22T08:28:18.728Z,18.30
2022-08-22T08:30:59.136Z,18.40
2022-08-22T08:33:29.397Z,18.40
2022-08-22T08:36:24.187Z,18.40
2022-08-22T08:39:17.306Z,18.50
2022-08-22T08:41:53.624Z,18.50
2022-08-22T08:44:37.794Z,18.50
2022-08-22T08:47:39.871Z,18.70
2022-08-22T08:50:40.178Z,18.70
2022-08-22T08:53:43.227Z,18.70
2022-08-22T08:56:31.857Z,18.70
2022-08-22T08:59:17.111Z,18.70
2022-08-22T09:02:09.161Z,18.80
2022-08-22T09:05:01.609Z,18.90
2022-08-22T09:07:57.123Z,18.90
2022-08-22T09:10:57.275Z,19.00
2022-08-22T09:13:52.346Z,19.10
2022-08-22T09:16:51.811Z,19.20
2022-08-22T09:19:43.917Z,19.20
2022-08-22T09:22:33.351Z,19.30
2022-08-22T09:25:25.500Z,19.40
2022-08-22T09:28:28.295Z,19.50
2022-08-22T09:31:01.909Z,19.60
2022-08-22T09:34:07.969Z,19.60
2022-08-22T09:37:06.513Z,19.70
2022-08-22T09:40:00.298Z,19.60
2022-08-22T09:42:35.302Z,19.70
2022-08-22T09:45:28.644Z,19.60
2022-08-22T09:48:30.086Z,19.80
2022-08-22T09:51:33.396Z,19.70
2022-08-22T09:54:09.853Z,19.80
2022-08-22T09:56:52.578Z,20.00
2022-08-22T09:59:46.908Z,19.90
2022-08-22T10:02:43.531Z,20.00
2022-08-22T10:05:40.894Z,20.00
2022-08-22T10:08:50.621Z,20.10
2022-08-22T10:11:30.583Z,20.20
2022-08-22T10:14:03.400Z,20.20
2022-08-22T10:17:08.538Z,20.30
2022-08-22T10:19:52.170Z,20.30
2022-08-22T10:22:39.111Z,20.40
2022-08-22T10:25:15.563Z,20.50
2022-08-22T10:27:53.378Z,20.50
2022-08-22T10:30:26.295Z,20.60
2022-08-22T10:33:16.433Z,20.70
2022-08-22T10:35:44.095Z,20.70
2022-08-22T10:38:25.178Z,20.80
2022-08-22T10:41:36.234Z,20.80
2022-08-22T10:44:20.700Z,20.90
2022-08-22T10:47:12.146Z,21.00
2022-08-22T10:50:03.621Z,21.00
2022-08-22T10:52:47.027Z,21.10
2022-08-22T10:55:14.455Z,21.30
2022-08-22T10:57:52.712Z,20.80
2022-08-22T11:00:46.428Z,21.30
2022-08-22T11:03:48.591Z,21.30
2022-08-22T11:06:24.355Z,21.70
2022-08-22T11:09:25.205Z,21.40
2022-08-22T11:12:13.230Z,21.50
2022-08-22T11:14:50.923Z,21.60
2022-08-22T11:17:41.676Z,21.70
2022-08-22T11:20:33.373Z,21.60
2022-08-22T11:23:19.434Z,21.70
2022-08-22T11:25:53.799Z,21.70
2022-08-22T11:28:43.371Z,21.70
2022-08-22T11:31:36.407Z,21.80
2022-08-22T11:34:44.774Z,21.40
2022-08-22T11:37:15.268Z,21.80
2022-08-22T11:40:04.449Z,21.80
2022-08-22T11:42:56.586Z,21.80
2022-08-22T11:45:32.757Z,22.60
2022-08-22T11:48:09.904Z,22.00
2022-08-22T11:50:44.781Z,22.10
2022-08-22T11:53:30.807Z,22.20
2022-08-22T11:56:37.124Z,22.20
2022-08-22T11:59:23.761Z,22.30
2022-08-22T12:01:57.026Z,22.20
2022-08-22T12:04:35.889Z,22.10
2022-08-22T12:07:25.688Z,22.00
2022-08-22T12:10:13.556Z,22.00
2022-08-22T12:13:16.691Z,21.90
2022-08-22T12:15:55.150Z,21.80
2022-08-22T12:18:31.414Z,21.90
2022-08-22T12:21:15.160Z,20.30
2022-08-22T12:23:49.410Z,22.10
2022-08-22T12:26:47.433Z,22.10
2022-08-22T12:29:17.855Z,22.20
2022-08-22T12:32:04.597Z,22.20
2022-08-22T12:34:35.133Z,22.20
2022-08-22T12:37:15.985Z,22.20
2022-08-22T12:39:47.980Z,22.10
2022-08-22T12:42:32.012Z,22.10
2022-08-22T12:45:18.528Z,22.10
2022-08-22T12:48:05.180Z,22.20
2022-08-22T12:50:34.241Z,22.20
2022-08-22T12:53:20.092Z,22.20
2022-08-22T12:56:10.337Z,22.20
2022-08-22T12:58:56.326Z,22.10
2022-08-22T13:01:34.115Z,22.10
2022-08-22T13:04:05.593Z,22.10
2022-08-22T13:06:36.985Z,22.10
2022-08-22T13:09:15.748Z,22.10
2022-08-22T13:11:44.066Z,22.10
2022-08-22T13:14:19.040Z,22.10
2022-08-22T13:16:50.956Z,22.10
2022-08-22T13:19:31.930Z,22.10
2022-08-22T13:22:16.970Z,22.00
2022-08-22T13:24:51.737Z,22.10
2022-08-22T13:27:24.284Z,22.10
2022-08-22T13:30:02.338Z,22.10
2022-08-22T13:32:29.722Z,22.20
2022-08-22T13:34:57.884Z,22.30
2022-08-22T13:37:30.215Z,22.30
2022-08-22T13:40:01.903Z,22.40
2022-08-22T13:42:31.372Z,22.50
2022-08-22T13:45:04.592Z,22.60
2022-08-22T13:47:35.239Z,22.60
2022-08-22T13:50:06.773Z,22.70
2022-08-22T13:52:52.517Z,22.70
2022-08-22T13:55:43.361Z,22.70
2022-08-22T13:58:29.269Z,22.80
2022-08-22T14:01:02.241Z,22.90
2022-08-22T14:03:38.146Z,23.00
2022-08-22T14:06:37.277Z,23.00
2022-08-22T14:09:02.658Z,22.90
2022-08-22T14:11:44.884Z,22.90
2022-08-22T14:14:14.156Z,22.90
2022-08-22T14:16:49.458Z,23.00
2022-08-22T14:19:58.989Z,23.10
2022-08-22T14:22:32.285Z,23.10
2022-08-22T14:25:07.329Z,23.10
2022-08-22T14:27:34.806Z,23.10
2022-08-22T14:30:05.851Z,23.00
2022-08-22T14:32:41.822Z,23.00
2022-08-22T14:35:21.673Z,22.80
2022-08-22T14:37:53.100Z,22.70
2022-08-22T14:40:23.315Z,22.60
2022-08-22T14:42:55.186Z,22.50
2022-08-22T14:45:28.895Z,22.40
2022-08-22T14:48:31.465Z,22.40
2022-08-22T14:51:06.035Z,22.30
2022-08-22T14:53:38.546Z,22.20
2022-08-22T14:56:11.107Z,22.20
2022-08-22T14:58:49.470Z,22.20
2022-08-22T15:01:22.379Z,22.20
2022-08-22T15:03:54.049Z,22.10
2022-08-22T15:06:36.140Z,22.00
2022-08-22T15:09:07.852Z,22.00
2022-08-22T15:11:42.307Z,22.00
2022-08-22T15:14:12.756Z,21.90
2022-08-22T15:16:50.882Z,21.90
2022-08-22T15:19:33.400Z,21.80
2022-08-22T15:22:13.745Z,21.90
2022-08-22T15:24:43.264Z,22.00
2022-08-22T15:27:10.861Z,22.10
2022-08-22T15:29:49.035Z,22.10
2022-08-22T15:32:20.341Z,22.20
2022-08-22T15:34:52.368Z,22.50
2022-08-22T15:37:20.184Z,22.30
2022-08-22T15:40:10.191Z,22.40
2022-08-22T15:42:50.249Z,22.50
2022-08-22T15:45:19.315Z,22.50
2022-08-22T15:47:52.085Z,22.60
2022-08-22T15:50:37.982Z,22.60
2022-08-22T15:53:06.717Z,22.60
2022-08-22T15:55:35.709Z,22.60
2022-08-22T15:58:12.866Z,22.50
2022-08-22T16:00:44.908Z,22.40
2022-08-22T16:03:33.310Z,22.40
2022-08-22T16:06:02.151Z,22.30
2022-08-22T16:08:33.249Z,22.40
2022-08-22T16:11:03.783Z,22.40
2022-08-22T16:13:30.962Z,22.40
2022-08-22T16:16:03.175Z,22.50
2022-08-22T16:18:33.300Z,23.70
2022-08-22T16:21:00.539Z,22.50
2022-08-22T16:23:30.446Z,22.80
2022-08-22T16:25:57.646Z,22.50
2022-08-22T16:28:36.374Z,22.40
2022-08-22T16:31:24.002Z,21.70
2022-08-22T16:33:51.344Z,22.40
2022-08-22T16:36:38.142Z,22.30
2022-08-22T16:39:09.057Z,22.30
2022-08-22T16:41:40.370Z,21.40
2022-08-22T16:44:26.273Z,22.30
2022-08-22T16:46:54.152Z,22.40
2022-08-22T16:49:29.660Z,22.30
2022-08-22T16:52:15.767Z,22.30
2022-08-22T16:54:46.896Z,22.30
2022-08-22T16:57:14.426Z,22.30
2022-08-22T16:59:41.909Z,22.40
2022-08-22T17:02:18.388Z,22.30
2022-08-22T17:04:54.918Z,22.30
2022-08-22T17:07:34.931Z,22.30
2022-08-22T17:10:17.606Z,22.20
2022-08-22T17:13:08.104Z,22.20
2022-08-22T17:15:57.591Z,22.20
2022-08-22T17:18:26.596Z,22.10
2022-08-22T17:21:08.356Z,22.10
2022-08-22T17:23:47.635Z,22.10
2022-08-22T17:26:34.803Z,22.40
2022-08-22T17:29:07.900Z,22.00
2022-08-22T17:31:48.106Z,22.00
2022-08-22T17:34:18.326Z,22.00
2022-08-22T17:37:04.389Z,21.90
2022-08-22T17:39:55.545Z,21.90
2022-08-22T17:42:29.215Z,21.90
2022-08-22T17:45:09.820Z,21.80
2022-08-22T17:47:49.233Z,21.70
2022-08-22T17:50:16.665Z,21.70
2022-08-22T17:52:49.406Z,21.60
2022-08-22T17:55:19.332Z,21.60
2022-08-22T17:57:52.947Z,21.60
2022-08-22T18:00:48.564Z,21.60
2022-08-22T18:03:22.166Z,21.60
2022-08-22T18:05:53.301Z,21.60
2022-08-22T18:11:25.062Z,21.50
2022-08-22T18:13:52.943Z,21.50
2022-08-22T18:16:25.525Z,21.50
2022-08-22T18:19:01.075Z,21.50
2022-08-22T18:21:33.540Z,21.50
2022-08-22T18:24:10.400Z,21.40
2022-08-22T18:26:43.861Z,21.40
2022-08-22T18:29:22.329Z,21.40
2022-08-22T18:32:03.492Z,21.40
2022-08-22T18:34:49.211Z,21.40
2022-08-22T18:37:20.294Z,21.40
2022-08-22T18:40:07.176Z,21.30
2022-08-22T18:42:49.767Z,21.30
2022-08-22T18:45:18.216Z,21.30
2022-08-22T18:47:57.510Z,21.30
2022-08-22T18:50:32.604Z,21.30
2022-08-22T18:53:00.308Z,21.30
2022-08-22T18:55:28.006Z,21.20
2022-08-22T18:58:01.211Z,21.70
2022-08-22T19:00:48.648Z,21.10
2022-08-22T19:03:18.771Z,21.10
2022-08-22T19:05:46.042Z,21.10
2022-08-22T19:08:29.975Z,20.60
2022-08-22T19:11:17.552Z,21.00
2022-08-22T19:13:57.300Z,21.00
2022-08-22T19:16:31.536Z,20.90
2022-08-22T19:18:58.814Z,20.90
2022-08-22T19:21:46.182Z,20.90
2022-08-22T19:24:20.513Z,20.80
2022-08-22T19:26:49.584Z,20.80
2022-08-22T19:29:18.166Z,20.70
2022-08-22T19:31:48.263Z,20.70
2022-08-22T19:34:30.082Z,20.70
2022-08-22T19:37:32.814Z,20.60
2022-08-22T19:40:01.535Z,20.50
2022-08-22T19:42:30.780Z,20.50
2022-08-22T19:45:16.763Z,20.50
2022-08-22T19:47:52.505Z,20.40
2022-08-22T19:50:21.318Z,20.40
2022-08-22T19:53:01.223Z,20.40
2022-08-22T19:55:46.511Z,20.40
2022-08-22T19:58:33.136Z,20.30
2022-08-22T20:01:25.686Z,20.20
2022-08-22T20:03:54.752Z,20.20
2022-08-22T20:06:43.581Z,20.20
2022-08-22T20:09:30.535Z,20.20
2022-08-22T20:12:06.599Z,20.10
2022-08-22T20:14:35.955Z,20.10
2022-08-22T20:17:09.803Z,20.10
2022-08-22T20:19:42.889Z,20.10
2022-08-22T20:22:14.349Z,20.10
2022-08-22T20:24:44.002Z,20.00
2022-08-22T20:27:17.738Z,20.00
2022-08-22T20:29:52.980Z,20.10
2022-08-22T20:32:22.048Z,20.00
2022-08-22T20:34:53.693Z,20.00
2022-08-22T20:37:50.662Z,20.00
2022-08-22T20:40:53.511Z,19.70
2022-08-22T20:43:37.617Z,20.00
2022-08-22T20:46:20.222Z,20.00
2022-08-22T20:48:48.934Z,20.00
2022-08-22T20:51:18.003Z,20.00
2022-08-22T20:53:52.982Z,19.90
2022-08-22T20:56:52.970Z,19.90
2022-08-22T20:59:23.590Z,19.80
2022-08-22T21:02:04.678Z,19.80
2022-08-22T21:04:42.519Z,19.70
2022-08-22T21:07:10.286Z,19.70
2022-08-22T21:09:56.157Z,19.70
2022-08-22T21:12:24.195Z,19.70
2022-08-22T21:14:51.320Z,19.70
2022-08-22T21:17:20.156Z,19.80
2022-08-22T21:19:47.904Z,19.70
2022-08-22T21:22:16.101Z,19.70
2022-08-22T21:24:43.382Z,19.90
2022-08-22T21:27:18.574Z,19.70
2022-08-22T21:29:46.501Z,19.70
2022-08-22T21:32:13.578Z,19.70
2022-08-22T21:34:45.342Z,19.70
2022-08-22T21:37:14.092Z,19.70
2022-08-22T21:39:49.181Z,19.70
2022-08-22T21:42:24.037Z,19.70
2022-08-22T21:45:02.674Z,19.70
2022-08-22T21:47:50.006Z,19.70
2022-08-22T21:50:23.585Z,19.70
2022-08-22T21:52:53.640Z,19.70
2022-08-22T21:55:34.997Z,19.70
2022-08-22T21:58:11.995Z,19.70
2022-08-22T22:00:49.502Z,19.70
2022-08-22T22:03:19.067Z,19.70
2022-08-22T22:05:46.412Z,19.70
2022-08-22T22:08:13.761Z,19.80
2022-08-22T22:10:42.109Z,19.80
2022-08-22T22:13:09.972Z,19.80
2022-08-22T22:15:45.421Z,19.80
2022-08-22T22:18:13.864Z,19.90
2022-08-22T22:20:41.729Z,19.80
2022-08-22T22:23:08.970Z,19.80
2022-08-22T22:25:40.446Z,19.80
2022-08-22T22:28:15.147Z,19.80
2022-08-22T22:30:42.753Z,19.80
2022-08-22T22:33:10.352Z,19.80
2022-08-22T22:35:39.315Z,19.80
2022-08-22T22:38:06.833Z,19.80
2022-08-22T22:40:34.259Z,19.80
2022-08-22T22:43:01.410Z,19.80
2022-08-22T22:45:28.658Z,19.80
2022-08-22T22:47:55.998Z,19.80
2022-08-22T22:50:23.739Z,19.80
2022-08-22T22:52:50.856Z,19.70
2022-08-22T22:55:24.658Z,19.80
2022-08-22T22:57:58.554Z,19.80
2022-08-22T23:00:29.173Z,19.70
2022-08-22T23:03:01.203Z,19.70
2022-08-22T23:05:29.402Z,19.70
2022-08-22T23:07:57.249Z,19.70
2022-08-22T23:10:25.323Z,19.70
2022-08-22T23:12:52.535Z,20.60
2022-08-22T23:15:22.140Z,19.70
2022-08-22T23:17:49.559Z,19.60
2022-08-22T23:20:16.766Z,19.70
2022-08-22T23:22:45.400Z,19.60
2022-08-22T23:25:12.618Z,19.70
2022-08-22T23:27:40.014Z,19.60
2022-08-22T23:30:09.169Z,19.60
2022-08-22T23:32:40.845Z,19.60
2022-08-22T23:35:08.249Z,19.50
2022-08-22T23:37:36.554Z,19.60
2022-08-22T23:40:07.427Z,19.50
2022-08-22T23:42:34.706Z,19.60
2022-08-22T23:45:02.044Z,20.10
2022-08-22T23:47:29.237Z,19.50
2022-08-22T23:49:56.799Z,19.50
2022-08-22T23:52:23.929Z,19.50
2022-08-22T23:54:54.564Z,19.50
2022-08-22T23:57:27.372Z,18.90
2022-08-22T23:59:57.815Z,19.50
